Share

Kobuk Valley National Park, AK

Ambler (PAFM) Hoogte 289 ft | 67.11 °N, 157.86 °W | Change Station

Current weather conditions updated 13 minutes ago

Overcast
Geheel bewolkt
28 °F
Voelt als 20 °F
N
8
Wind Variabel Wind van NNO
Zonsopkomst 6:43 AM
Zonsondergang 10:41 PM
Maan Afnemende maan

Er wordt verwacht dat het vandaag koeler is dan gisteren.

Druk 29.71 inches
Zicht 10.0 mijlen
Wolken Geheel bewolkt 6000 ft
Gevoelstemperatuur 20 °F
Dauwpunt 18 °F
Vochtigheid 64%
Neerslag 0.00 inches
Dikte sneeuw Niet beschikbaar.
UV 0 van de 16
Pollen Niet beschikbaar.
Luchtkwaliteit Niet beschikbaar.
Flu Activity Sporadic
METAR PAFM 171216Z AUTO 03007KT 10SM OVC060 M02/M08 A2971 RMK AO1

More Conditions Fewer Conditions

Druk 29.71 inches
Zicht 10.0 mijlen
Wolken Geheel bewolkt 6000 ft
Gevoelstemperatuur 20 °F
Dauwpunt 18 °F
Vochtigheid 64%
Neerslag 0.00 inches
Dikte sneeuw Niet beschikbaar.
UV 0 van de 16
Pollen Niet beschikbaar.
Luchtkwaliteit Niet beschikbaar.
Flu Activity Sporadic
METAR PAFM 171216Z AUTO 03007KT 10SM OVC060 M02/M08 A2971 RMK AO1

More Conditions Fewer Conditions

10-Day Forecast

Almanac

Astronomie

Apr. 17, 2014 Opkomst Ondergang
Werkelijke tijd 6:43 AM AKDT 10:41 PM AKDT
Burgerlijke schemering 5:33 AM AKDT 11:52 PM AKDT
Nautische schemering 3:13 AM AKDT 2:08 AM AKDT
Astronomische schemering Sun does not rise Sun does not rise
Maan 1:29 AM AKDT 7:24 AM AKDT
Golflengte van het zichtbare licht 18h 19m
Daglengte
15h 57m
Tomorrow will be 8m 8s longer.
Afnemende maan, 94% of the Moon is Illuminated
Vandaag
Afnemende maan
apr 22
Laatste kwartier
apr 29
Nieuw
mei 6
Eerste kwartier
mei 14
Volle maan

Extremen vandaag

State Highs State Lows

Community

  • sunset from izmir, narlıdere
    sunset from izmir, narlıdere
  • Sunset over the Bay
    Sunset over the Bay
  • Sunrise Serenade
    Sunrise Serenade
  • symphony in blue....
    symphony in blue....
  • Dawn Surprise
    Dawn Surprise

WunderPhotos

Upload Photos

1,701,934 foto’s ge-upload!

Nearby

Luchtkwaliteit

Not available.

Dikte sneeuw

Station Depth Geometrische hoogte
Pargon Creek 4 in 300 ft
Rocky Point 7 in 500 ft
Gobblers Knob 9 in 2030 ft
Coldfoot 27 in 1040 ft
Atigun Pass 37 in 4800 ft

Watertemperatuur langs de kust

Plaats Temperatuur
Geen meldingen van stations

Aardbevingen

Stad Distance Mag. Time & Date
No recent earthquake activity has been reported nearby.
Minimum magnitude displayed is 2.5.

Nabije weerstations

Geen persoonlijke weerstations in dit gebied.

What do you think?

We're not finished. Please let us know what you like, what you don't like, and what you are still missing.